Decoded Metar for LEAM (ALMERIA in SPAIN) (IATA:LEI) | Meteo·Mobile Aviation Weather
aviador You're here:

LEAM Decoded Metar

ALMERIA in SPAIN
Report Time2020-02-18 22:30:00
UTC Time2020-02-18 23:02:48
Flight Rules vfr VFR
Wind080° at 08 kt
W.Decomp.*RWY 07: 7.9 kt HW 1.5 kt RCW
Visibility9999 m
Phenomena:N/A
Clouds:Overcast 033 Hf
Expected CloudBase > 1,200 ft AGL from Temp-Dew spread
Ceiling3,300 ft
Temp15°C (ISA 0)
Dew Point12°C (82% RH)
AAT12.7°C
QNH1029 hPa
Density Alt-266 ft
Elevation69 ft
Report Wrong Elevation
Raw Report
LEAM 182230Z AUTO 08008KT 9999 OVC033 15/12 Q1029=

Extra information for LEAM:More info

Metar Taf Metar & Taf Last 4 Metars F.Rules Stats Wind Profile Meteogram Temp Stats Airport Information Weather charts Add Link Nearby VenuesMetar ALERT Operation Metar Decoded Social comments